Time;durP1;ratioP1;P1;durP2;ratioP2;P2;SDS_P1;SDS_P2;PMS_P1;PMS_P2;Temp;Humidity;BMP_temperature;BMP_pressure;BME280_temperature;BME280_humidity;BME280_pressure;Samples;Min_cycle;Max_cycle;Signal;HPM_P1;HPM_P2
2023/04/20 00:01:33;;;;;;;4.57;2.67;;;;;;;6.80;39.00;102240.31;4903581;29;20037;-70
2023/04/20 00:03:58;;;;;;;6.18;2.60;;;;;;;6.77;39.04;102230.63;4890306;29;20412;-70
2023/04/20 00:06:28;;;;;;;6.07;2.78;;;;;;;6.76;40.00;102231.50;4898114;29;20047;-70
2023/04/20 00:08:54;;;;;;;11.18;2.40;;;;;;;6.73;39.89;102228.81;4907897;29;20104;-70
2023/04/20 00:11:19;;;;;;;8.02;2.63;;;;;;;6.70;39.94;102222.59;4910743;29;20432;-70
2023/04/20 00:13:45;;;;;;;9.75;2.42;;;;;;;6.65;40.70;102218.16;4914611;29;20052;-70
2023/04/20 00:16:10;;;;;;;5.30;2.60;;;;;;;6.64;39.68;102221.63;4913100;29;20024;-70
2023/04/20 00:18:36;;;;;;;5.28;2.50;;;;;;;6.62;39.67;102211.94;4903200;29;20040;-70
2023/04/20 00:21:01;;;;;;;6.25;3.20;;;;;;;6.60;39.61;102209.31;4909880;29;20106;-70
2023/04/20 00:23:27;;;;;;;4.40;2.45;;;;;;;6.58;39.75;102200.50;4915359;29;20032;-70
2023/04/20 00:25:53;;;;;;;3.88;2.55;;;;;;;6.55;39.84;102192.56;4890593;29;20449;-70
2023/04/20 00:28:18;;;;;;;3.60;2.20;;;;;;;6.52;40.52;102194.22;4913152;29;20103;-70
2023/04/20 00:30:44;;;;;;;7.25;2.78;;;;;;;6.46;40.09;102187.13;4929371;29;20135;-70
2023/04/20 00:33:10;;;;;;;4.07;2.35;;;;;;;6.46;40.14;102192.41;4910516;29;20033;-71
2023/04/20 00:35:35;;;;;;;3.80;2.42;;;;;;;6.40;40.43;102198.41;4912032;29;20080;-70
2023/04/20 00:38:01;;;;;;;9.77;2.90;;;;;;;6.36;40.47;102191.34;4909718;29;20143;-70
2023/04/20 00:40:26;;;;;;;4.50;2.50;;;;;;;6.36;40.53;102188.72;4902530;29;20072;-70
2023/04/20 00:42:52;;;;;;;5.43;2.22;;;;;;;6.32;41.06;102181.63;4884632;29;20033;-70
2023/04/20 00:45:17;;;;;;;5.95;2.83;;;;;;;6.25;41.30;102179.75;4896221;29;20048;-70
2023/04/20 00:47:43;;;;;;;8.05;2.28;;;;;;;6.21;41.21;102170.06;4871317;29;20037;-70
2023/04/20 00:50:10;;;;;;;3.63;2.20;;;;;;;6.19;41.57;102172.63;4898632;29;20059;-72
2023/04/20 00:52:38;;;;;;;5.38;2.58;;;;;;;6.17;41.37;102174.34;4900137;29;20036;-72
2023/04/20 00:55:05;;;;;;;8.27;2.50;;;;;;;6.11;41.29;102170.72;4883914;29;20048;-72
2023/04/20 00:57:31;;;;;;;5.15;2.60;;;;;;;6.06;42.13;102165.41;4903693;29;20500;-72
2023/04/20 01:00:00;;;;;;;5.90;2.75;;;;;;;6.01;41.75;102162.69;4892558;29;20132;-72
2023/04/20 01:02:26;;;;;;;3.83;2.80;;;;;;;5.97;42.59;102154.72;4896505;29;20087;-72
2023/04/20 01:04:52;;;;;;;5.45;2.35;;;;;;;5.93;42.85;102148.47;4891781;29;20041;-72
2023/04/20 01:07:18;;;;;;;8.30;2.65;;;;;;;5.92;42.64;102148.44;4893280;29;20029;-72
2023/04/20 01:09:43;;;;;;;5.30;2.60;;;;;;;5.88;42.61;102138.72;4903869;29;20048;-70
2023/04/20 01:12:09;;;;;;;3.55;2.30;;;;;;;5.85;43.24;102136.03;4892437;29;20058;-70
2023/04/20 01:14:35;;;;;;;4.55;2.45;;;;;;;5.83;42.91;102128.13;4901556;29;20529;-71
2023/04/20 01:17:03;;;;;;;6.28;2.80;;;;;;;5.77;43.26;102121.03;4900104;29;20032;-70
2023/04/20 01:19:29;;;;;;;9.10;2.58;;;;;;;5.74;43.69;102118.34;4892859;29;20032;-70
2023/04/20 01:21:54;;;;;;;6.63;2.70;;;;;;;5.73;43.28;102115.66;4899035;29;20473;-70
2023/04/20 01:24:19;;;;;;;7.63;3.20;;;;;;;5.70;43.21;102111.25;4887553;29;20071;-70
2023/04/20 01:26:45;;;;;;;9.45;2.78;;;;;;;5.71;43.83;102109.50;4898787;29;20043;-70
2023/04/20 01:29:10;;;;;;;6.55;2.70;;;;;;;5.69;43.70;102104.22;4873299;29;20037;-70
2023/04/20 01:31:36;;;;;;;7.10;2.65;;;;;;;5.69;44.22;102093.72;4899492;29;20067;-70
2023/04/20 01:34:02;;;;;;;7.57;2.90;;;;;;;5.66;44.02;102085.75;4899498;29;20048;-70
2023/04/20 01:36:27;;;;;;;7.20;2.97;;;;;;;5.66;43.77;102091.00;4903934;29;20436;-70
2023/04/20 01:38:53;;;;;;;5.47;3.00;;;;;;;5.66;44.47;102085.75;4894224;29;20048;-70
2023/04/20 01:41:19;;;;;;;5.40;3.15;;;;;;;5.62;44.41;102076.06;4889181;29;20049;-70
2023/04/20 01:43:45;;;;;;;9.05;2.85;;;;;;;5.61;44.98;102079.53;4886496;29;20128;-70
2023/04/20 01:46:11;;;;;;;6.00;3.00;;;;;;;5.58;44.96;102076.84;4877243;29;20084;-70
2023/04/20 01:48:36;;;;;;;5.88;2.95;;;;;;;5.55;45.71;102077.69;4899580;29;20040;-70
2023/04/20 01:51:02;;;;;;;5.03;2.83;;;;;;;5.54;45.76;102081.19;4899238;29;20024;-70
2023/04/20 01:53:27;;;;;;;5.32;2.78;;;;;;;5.51;45.39;102065.34;4904701;29;20047;-71
2023/04/20 01:55:53;;;;;;;6.97;2.85;;;;;;;5.48;46.08;102069.66;4892790;29;20049;-71
2023/04/20 01:58:21;;;;;;;8.45;2.65;;;;;;;5.45;45.94;102062.59;4892900;29;20029;-71
2023/04/20 02:00:46;;;;;;;5.80;2.22;;;;;;;5.43;46.84;102056.44;4880701;29;20096;-71
2023/04/20 02:03:12;;;;;;;3.58;2.38;;;;;;;5.37;45.91;102062.47;4881279;29;20119;-71
2023/04/20 02:05:37;;;;;;;7.88;2.60;;;;;;;5.34;46.81;102056.25;4881346;29;20032;-71
2023/04/20 02:08:03;;;;;;;6.57;2.53;;;;;;;5.28;46.92;102049.16;4898116;29;20048;-71
2023/04/20 02:10:30;;;;;;;3.80;2.58;;;;;;;5.23;46.79;102049.91;4881243;29;20040;-71
2023/04/20 02:12:56;;;;;;;3.60;2.25;;;;;;;5.18;47.34;102045.47;4898100;29;20116;-71
2023/04/20 02:15:21;;;;;;;5.97;2.97;;;;;;;5.16;47.36;102047.16;4881224;29;20025;-71
2023/04/20 02:17:50;;;;;;;5.72;2.30;;;;;;;5.12;47.64;102042.72;4898031;29;20045;-71
2023/04/20 02:20:18;;;;;;;7.22;3.28;;;;;;;5.10;47.89;102040.94;4880960;29;20035;-71
2023/04/20 02:22:44;;;;;;;4.22;2.65;;;;;;;5.09;47.92;102041.75;4896856;29;20091;-71
2023/04/20 02:25:09;;;;;;;4.60;2.83;;;;;;;5.08;48.16;102038.25;4902109;29;20131;-71
2023/04/20 02:27:35;;;;;;;5.65;2.90;;;;;;;5.08;47.94;102034.75;4881133;29;20032;-71
2023/04/20 02:30:04;;;;;;;6.70;2.78;;;;;;;5.08;48.48;102043.50;4894538;29;20061;-71
2023/04/20 02:32:30;;;;;;;7.32;2.80;;;;;;;5.05;48.58;102032.94;4891813;29;20047;-71
2023/04/20 02:34:56;;;;;;;5.25;3.03;;;;;;;5.04;48.88;102036.41;4887502;29;20045;-71
2023/04/20 02:37:26;;;;;;;5.85;2.90;;;;;;;5.04;49.33;102036.41;4894535;29;20060;-71
2023/04/20 02:39:51;;;;;;;10.63;3.50;;;;;;;5.01;49.37;102031.09;4896412;29;20047;-71
2023/04/20 02:42:17;;;;;;;6.78;3.22;;;;;;;5.00;49.65;102036.34;4910796;29;20495;-71
2023/04/20 02:44:43;;;;;;;6.80;3.20;;;;;;;4.98;50.28;102023.19;4911875;29;20056;-71
2023/04/20 02:47:08;;;;;;;8.13;2.85;;;;;;;4.98;50.98;102028.44;4903217;29;20079;-71
2023/04/20 02:49:34;;;;;;;6.70;2.95;;;;;;;4.96;50.96;102017.88;4911606;29;20040;-71
2023/04/20 02:52:00;;;;;;;5.00;2.65;;;;;;;4.92;50.94;102009.91;4906121;29;20039;-71
2023/04/20 02:54:26;;;;;;;6.50;2.70;;;;;;;4.92;51.68;102016.06;4911523;29;20073;-71
2023/04/20 02:56:52;;;;;;;5.72;2.50;;;;;;;4.90;51.80;102006.41;4903046;29;20041;-71
2023/04/20 02:59:17;;;;;;;12.40;3.00;;;;;;;4.86;51.59;102000.19;4911672;29;20033;-71
2023/04/20 03:01:48;;;;;;;;;;;;;;;4.92;50.22;102008.19;4890981;29;20029;-71
2023/04/20 03:04:19;;;;;;;13.00;3.00;;;;;;;4.89;52.27;102001.97;4909529;29;20324;-71
2023/04/20 03:06:57;;;;;;;6.43;3.08;;;;;;;4.89;53.37;102007.22;4890261;29;20036;-71
2023/04/20 03:09:26;;;;;;;6.05;3.17;;;;;;;4.89;53.63;101999.34;4895135;29;20035;-71
2023/04/20 03:12:11;;;;;;;7.88;3.30;;;;;;;4.90;54.08;101996.78;4876747;29;20088;-71
2023/04/20 03:14:55;;;;;;;4.88;3.35;;;;;;;4.91;54.50;101981.91;4897822;29;20063;-71
2023/04/20 03:17:29;;;;;;;4.88;2.85;;;;;;;4.96;54.53;101996.00;4910531;29;20047;-71
2023/04/20 03:19:55;;;;;;;4.93;3.13;;;;;;;4.99;54.75;101992.56;4911081;29;20336;-71
2023/04/20 03:22:20;;;;;;;6.68;3.25;;;;;;;5.01;55.50;101986.47;4897315;29;20047;-71
2023/04/20 03:24:51;;;;;;;7.07;2.92;;;;;;;5.03;55.69;101976.91;4911340;29;20127;-71
2023/04/20 03:27:40;;;;;;;5.70;3.15;;;;;;;5.08;55.55;101982.25;4911603;29;20048;-71
2023/04/20 03:30:10;;;;;;;4.30;2.92;;;;;;;5.09;55.88;101982.25;4911120;29;20067;-71
2023/04/20 03:32:37;;;;;;;11.50;3.42;;;;;;;5.14;56.29;101992.84;4911221;29;20040;-71
2023/04/20 03:35:04;;;;;;;5.03;3.00;;;;;;;5.17;56.10;101966.66;4899146;29;20060;-71
2023/04/20 03:37:30;;;;;;;6.70;3.40;;;;;;;5.23;56.95;101974.63;4911311;29;20171;-71
2023/04/20 03:39:55;;;;;;;4.70;2.78;;;;;;;5.29;56.65;101965.97;4896567;29;20044;-71
2023/04/20 03:42:21;;;;;;;6.07;3.30;;;;;;;5.33;57.09;101962.56;4896795;29;20054;-71
2023/04/20 03:44:47;;;;;;;7.15;3.20;;;;;;;5.37;56.98;101957.38;4922902;29;20039;-71
2023/04/20 03:47:13;;;;;;;8.20;3.35;;;;;;;5.42;56.82;101956.59;4875218;29;20041;-71
2023/04/20 03:49:38;;;;;;;7.25;3.33;;;;;;;5.47;57.10;101960.19;4910912;29;20456;-71
2023/04/20 03:52:04;;;;;;;5.80;3.20;;;;;;;5.52;57.38;101955.88;4911095;29;20388;-71
2023/04/20 03:54:30;;;;;;;5.22;3.50;;;;;;;5.57;56.98;101957.72;4896333;29;20099;-71
2023/04/20 03:56:57;;;;;;;9.77;4.35;;;;;;;5.59;57.25;101942.88;4898340;29;20476;-71
2023/04/20 03:59:24;;;;;;;5.25;3.15;;;;;;;5.62;57.69;101955.19;4900365;29;20040;-71
2023/04/20 04:01:50;;;;;;;6.80;3.20;;;;;;;5.67;57.62;101937.75;4908849;29;20033;-71
2023/04/20 04:04:16;;;;;;;9.88;3.33;;;;;;;5.69;57.65;101945.66;4895049;29;20043;-71
2023/04/20 04:06:42;;;;;;;7.93;2.97;;;;;;;5.73;57.71;101942.19;4906055;29;20037;-71
2023/04/20 04:09:08;;;;;;;6.53;3.03;;;;;;;5.77;57.71;101934.38;4920908;29;20415;-71
2023/04/20 04:11:33;;;;;;;8.63;3.55;;;;;;;5.82;57.32;101939.72;4910768;29;20072;-71
2023/04/20 04:13:59;;;;;;;8.60;3.63;;;;;;;5.84;57.82;101938.00;4910948;29;20600;-71
2023/04/20 04:16:27;;;;;;;3.60;2.45;;;;;;;5.88;58.11;101942.44;4904272;29;20040;-71
2023/04/20 04:18:53;;;;;;;6.18;3.22;;;;;;;5.93;58.00;101939.88;4910856;29;20115;-71
2023/04/20 04:21:19;;;;;;;5.15;3.42;;;;;;;5.95;57.53;101927.66;4910757;29;20515;-71
2023/04/20 04:23:52;;;;;;;6.30;3.30;;;;;;;5.98;58.28;101928.63;4910825;29;20047;-71
2023/04/20 04:26:30;;;;;;;8.32;3.42;;;;;;;6.01;58.12;101928.66;4895790;29;20037;-71
2023/04/20 04:28:56;;;;;;;6.85;3.40;;;;;;;6.06;57.65;101925.19;4917209;29;20040;-70
2023/04/20 04:31:23;;;;;;;4.97;3.00;;;;;;;6.07;58.70;101913.81;4882714;29;20395;-71
2023/04/20 04:33:50;;;;;;;6.88;3.00;;;;;;;6.09;58.71;101918.25;4884626;29;20707;-71
2023/04/20 04:36:42;;;;;;;5.75;3.15;;;;;;;6.11;58.25;101911.25;4897908;29;20049;-71
2023/04/20 04:39:11;;;;;;;9.60;3.67;;;;;;;6.15;58.84;101905.16;4878037;29;20056;-71
2023/04/20 04:41:40;;;;;;;6.57;3.50;;;;;;;6.18;58.33;101904.31;4883866;29;20397;-71
2023/04/20 04:44:18;;;;;;;6.07;2.92;;;;;;;6.22;58.64;101899.13;4881596;29;20401;-71
2023/04/20 04:46:46;;;;;;;5.18;2.85;;;;;;;6.27;58.38;101898.31;4885506;29;20044;-71
2023/04/20 04:49:11;;;;;;;6.80;2.78;;;;;;;6.30;58.51;101890.44;4882740;29;20024;-71
2023/04/20 04:51:39;;;;;;;7.57;2.88;;;;;;;6.32;58.19;101880.81;4897442;29;20048;-71
2023/04/20 04:54:05;;;;;;;7.28;3.45;;;;;;;6.38;59.17;101888.78;4899470;29;20033;-71
2023/04/20 04:56:30;;;;;;;7.60;3.40;;;;;;;6.41;58.89;101886.22;4899825;29;20054;-71
2023/04/20 04:58:56;;;;;;;8.10;3.17;;;;;;;6.44;59.19;101889.75;4885692;29;20037;-71
2023/04/20 05:01:21;;;;;;;6.07;3.33;;;;;;;6.47;58.33;101886.28;4888524;29;20471;-71
2023/04/20 05:03:46;;;;;;;6.30;3.28;;;;;;;6.49;58.05;101896.81;4899444;29;20124;-71
2023/04/20 05:06:12;;;;;;;5.38;3.08;;;;;;;6.53;58.49;101888.09;4882453;29;20515;-70
2023/04/20 05:08:37;;;;;;;7.53;3.20;;;;;;;6.57;58.70;101898.66;4899440;29;20036;-71
2023/04/20 05:11:03;;;;;;;9.02;3.33;;;;;;;6.57;59.42;101893.41;4882446;29;20631;-71
2023/04/20 05:13:28;;;;;;;5.32;3.20;;;;;;;6.57;59.08;101890.78;4899070;29;20096;-70
2023/04/20 05:15:54;;;;;;;4.95;3.15;;;;;;;6.58;58.97;101883.78;4888130;29;20068;-71
2023/04/20 05:18:19;;;;;;;8.68;3.42;;;;;;;6.60;60.10;101889.91;4901251;29;20392;-71
2023/04/20 05:20:45;;;;;;;5.72;3.55;;;;;;;6.60;60.65;101882.94;4898980;29;20048;-71
2023/04/20 05:23:10;;;;;;;8.20;3.63;;;;;;;6.61;60.72;101879.41;4880527;29;20036;-71
2023/04/20 05:25:36;;;;;;;5.72;3.42;;;;;;;6.63;61.55;101884.72;4899129;29;20048;-72
2023/04/20 05:28:02;;;;;;;9.50;3.60;;;;;;;6.63;61.75;101884.72;4898245;29;20039;-71
2023/04/20 05:30:27;;;;;;;8.63;3.40;;;;;;;6.63;62.05;101879.44;4897836;29;20488;-71
2023/04/20 05:32:53;;;;;;;8.93;3.47;;;;;;;6.64;62.87;101882.06;4899377;29;20036;-71
2023/04/20 05:35:20;;;;;;;7.03;3.28;;;;;;;6.64;63.06;101883.84;4882004;29;20072;-72
2023/04/20 05:37:46;;;;;;;7.07;3.50;;;;;;;6.63;63.20;101876.81;4898859;29;20405;-71
2023/04/20 05:40:11;;;;;;;6.80;3.38;;;;;;;6.65;62.88;101872.44;4898745;29;20475;-71
2023/04/20 05:42:37;;;;;;;12.02;3.78;;;;;;;6.66;62.10;101879.47;4902690;29;20031;-73
2023/04/20 05:45:03;;;;;;;8.32;3.55;;;;;;;6.66;62.29;101875.09;4917707;29;20040;-73
2023/04/20 05:47:29;;;;;;;8.23;3.50;;;;;;;6.69;61.62;101868.97;4885286;29;20035;-73
2023/04/20 05:49:54;;;;;;;7.28;4.32;;;;;;;6.73;61.80;101870.78;4900681;29;20051;-73
2023/04/20 05:52:20;;;;;;;7.10;3.40;;;;;;;6.77;61.37;101862.03;4905854;29;20154;-73
2023/04/20 05:54:45;;;;;;;6.15;3.33;;;;;;;6.78;61.89;101865.56;4879684;29;20071;-73
2023/04/20 05:57:11;;;;;;;6.03;3.15;;;;;;;6.78;61.25;101858.53;4881957;29;20033;-73
2023/04/20 05:59:36;;;;;;;10.27;3.92;;;;;;;6.81;61.32;101863.84;4898788;29;20037;-73
2023/04/20 06:02:02;;;;;;;8.43;3.70;;;;;;;6.85;60.58;101863.00;4897032;29;20028;-73
2023/04/20 06:04:29;;;;;;;8.68;3.60;;;;;;;6.88;60.94;101857.75;4898249;29;20506;-73
2023/04/20 06:06:54;;;;;;;11.43;3.75;;;;;;;6.91;60.78;101856.03;4898729;29;20605;-73
2023/04/20 06:09:20;;;;;;;6.45;3.58;;;;;;;6.94;61.30;101854.28;4898443;29;20100;-73
2023/04/20 06:11:45;;;;;;;6.75;3.88;;;;;;;6.97;60.93;101854.31;4898128;29;20123;-73
2023/04/20 06:14:12;;;;;;;8.18;4.57;;;;;;;7.01;60.63;101850.84;4898253;29;20051;-73
2023/04/20 06:16:38;;;;;;;7.35;3.47;;;;;;;7.06;60.32;101848.28;4898019;29;20420;-73
2023/04/20 06:19:03;;;;;;;7.93;3.60;;;;;;;7.14;60.57;101849.22;4892333;29;20040;-73
2023/04/20 06:21:30;;;;;;;8.55;4.00;;;;;;;7.23;60.47;101858.94;4881218;29;20127;-73
2023/04/20 06:23:56;;;;;;;7.75;4.18;;;;;;;7.29;60.45;101854.63;4896062;29;20485;-73
2023/04/20 06:26:22;;;;;;;15.48;4.38;;;;;;;7.37;60.30;101859.94;4898192;29;20111;-73
2023/04/20 06:28:47;;;;;;;8.88;3.90;;;;;;;7.43;60.15;101854.72;4896535;29;20051;-73
2023/04/20 06:31:13;;;;;;;9.05;3.40;;;;;;;7.47;59.60;101856.50;4898042;29;20168;-73
2023/04/20 06:33:39;;;;;;;6.85;3.60;;;;;;;7.51;59.17;101854.75;4882270;29;20052;-75
2023/04/20 06:36:08;;;;;;;5.82;3.65;;;;;;;7.58;60.33;101847.78;4875204;29;20076;-74
2023/04/20 06:38:34;;;;;;;7.90;4.07;;;;;;;7.63;58.96;101846.06;4896554;29;20092;-74
2023/04/20 06:41:02;;;;;;;6.35;3.60;;;;;;;7.68;58.53;101845.22;4897594;29;20453;-73
2023/04/20 06:43:29;;;;;;;8.60;4.30;;;;;;;7.72;58.67;101839.09;4882281;29;20043;-73
2023/04/20 06:45:55;;;;;;;6.22;3.30;;;;;;;7.78;58.52;101837.38;4880730;29;20083;-73
2023/04/20 06:48:21;;;;;;;5.63;3.30;;;;;;;7.85;59.00;101834.75;4896892;29;20032;-73
2023/04/20 06:50:49;;;;;;;7.63;3.80;;;;;;;7.92;58.37;101835.69;4896222;29;20036;-72
2023/04/20 06:53:16;;;;;;;9.50;3.67;;;;;;;8.02;58.55;101832.22;4894824;29;20052;-72
2023/04/20 06:55:41;;;;;;;9.90;3.67;;;;;;;8.10;57.99;101834.88;4897074;29;20028;-73
2023/04/20 06:58:07;;;;;;;8.05;3.95;;;;;;;8.14;58.06;101823.47;4889721;29;20458;-73
2023/04/20 07:00:33;;;;;;;11.27;3.72;;;;;;;8.16;57.54;101825.25;4879370;29;20029;-73
2023/04/20 07:02:58;;;;;;;11.02;3.90;;;;;;;8.18;57.79;101831.41;4892216;29;20120;-73
2023/04/20 07:05:27;;;;;;;9.43;4.30;;;;;;;8.26;57.97;101825.25;4890922;29;20487;-73
2023/04/20 07:07:53;;;;;;;10.30;3.80;;;;;;;8.32;57.27;101822.66;4891031;29;20400;-73
2023/04/20 07:10:18;;;;;;;6.95;3.60;;;;;;;8.35;56.34;101831.44;4896643;29;20036;-73
2023/04/20 07:12:44;;;;;;;6.53;3.75;;;;;;;8.35;57.08;101828.81;4896851;29;20040;-73
2023/04/20 07:15:10;;;;;;;4.97;3.47;;;;;;;8.33;57.07;101827.03;4879957;29;20441;-73
2023/04/20 07:17:36;;;;;;;6.57;3.90;;;;;;;8.28;57.24;101836.72;4887826;29;20045;-73
2023/04/20 07:20:07;;;;;;;5.30;3.78;;;;;;;8.23;56.55;101841.97;4896215;29;20032;-73
2023/04/20 07:22:33;;;;;;;9.30;4.38;;;;;;;8.23;56.99;101836.69;4893048;29;20120;-73
2023/04/20 07:25:01;;;;;;;7.18;3.90;;;;;;;8.15;57.12;101835.78;4892378;29;20041;-73
2023/04/20 07:27:28;;;;;;;5.97;3.83;;;;;;;8.11;56.58;101849.81;4892440;29;20048;-74
2023/04/20 07:29:53;;;;;;;19.92;4.28;;;;;;;8.05;57.16;101839.25;4862543;29;20167;-73
2023/04/20 07:32:19;;;;;;;8.38;3.90;;;;;;;8.02;57.80;101840.13;4892038;29;20072;-73
2023/04/20 07:34:45;;;;;;;10.38;3.83;;;;;;;7.97;57.98;101837.47;4879189;29;20053;-73
2023/04/20 07:37:11;;;;;;;6.35;3.30;;;;;;;8.01;58.18;101842.75;4888674;29;20052;-73
2023/04/20 07:39:37;;;;;;;8.00;3.65;;;;;;;8.01;58.21;101841.00;4891896;29;20509;-73
2023/04/20 07:42:03;;;;;;;8.82;3.65;;;;;;;8.03;57.93;101838.38;4893482;29;20036;-73
2023/04/20 07:44:29;;;;;;;9.77;3.65;;;;;;;8.03;57.66;101836.59;4894904;29;20100;-72
2023/04/20 07:46:56;;;;;;;10.13;3.63;;;;;;;8.09;58.30;101818.19;4896427;29;20048;-73
2023/04/20 07:49:22;;;;;;;8.85;3.60;;;;;;;8.23;58.46;101823.50;4892671;29;20187;-73
2023/04/20 07:51:48;;;;;;;7.85;3.70;;;;;;;8.35;57.32;101825.28;4893931;29;20056;-73
2023/04/20 07:54:13;;;;;;;5.93;3.42;;;;;;;8.43;58.06;101820.06;4893349;29;20024;-73
2023/04/20 07:56:39;;;;;;;7.05;3.72;;;;;;;8.64;57.66;101821.91;4896556;29;20032;-73
2023/04/20 07:59:04;;;;;;;5.65;3.30;;;;;;;8.82;56.95;101814.84;4896150;29;20051;-73
2023/04/20 08:01:30;;;;;;;7.85;3.42;;;;;;;8.99;56.38;101817.50;4895108;29;20492;-73
2023/04/20 08:03:55;;;;;;;5.68;3.28;;;;;;;9.06;56.08;101820.16;4894073;29;20073;-73
2023/04/20 08:06:21;;;;;;;8.55;3.60;;;;;;;9.04;55.98;101815.75;4896024;29;20062;-73
2023/04/20 08:08:46;;;;;;;5.55;3.45;;;;;;;9.03;56.29;101805.19;4894171;29;20032;-74
2023/04/20 08:11:12;;;;;;;5.40;3.35;;;;;;;9.05;55.78;101808.72;4892463;29;20037;-73
2023/04/20 08:13:37;;;;;;;7.40;3.67;;;;;;;9.04;56.05;101813.09;4894474;29;20464;-73
2023/04/20 08:16:03;;;;;;;4.80;3.40;;;;;;;9.07;56.43;101816.63;4892886;29;20536;-73
2023/04/20 08:18:29;;;;;;;8.38;3.55;;;;;;;9.13;56.34;101811.38;4892505;29;20029;-74
2023/04/20 08:20:55;;;;;;;9.02;3.75;;;;;;;9.15;56.40;101809.56;4889569;29;20088;-73
2023/04/20 08:23:26;;;;;;;5.85;3.63;;;;;;;9.14;56.45;101811.34;4894859;29;20069;-73
2023/04/20 08:25:55;;;;;;;7.35;4.07;;;;;;;9.13;56.17;101803.44;4891908;29;20044;-73
2023/04/20 08:28:21;;;;;;;8.23;3.83;;;;;;;9.12;56.20;101801.66;4891496;29;20132;-73
2023/04/20 08:30:46;;;;;;;5.18;3.03;;;;;;;9.14;56.01;101802.53;4890294;29;20459;-73
2023/04/20 08:33:12;;;;;;;7.50;3.20;;;;;;;9.17;55.91;101797.25;4904043;29;20053;-73
2023/04/20 08:35:37;;;;;;;5.47;2.97;;;;;;;9.26;56.46;101789.31;4892365;29;20048;-71
2023/04/20 08:38:03;;;;;;;7.07;3.28;;;;;;;9.47;56.19;101796.34;4897276;29;20485;-71
2023/04/20 08:40:30;;;;;;;8.40;3.20;;;;;;;9.67;55.34;101791.88;4897543;29;20100;-72
2023/04/20 08:42:58;;;;;;;5.70;3.22;;;;;;;9.73;55.52;101780.41;4899100;29;20021;-72
2023/04/20 08:45:25;;;;;;;6.07;2.88;;;;;;;9.79;55.10;101790.97;4894639;29;20383;-72
2023/04/20 08:47:51;;;;;;;3.75;2.90;;;;;;;9.82;54.81;101788.31;4906696;29;20032;-72
2023/04/20 08:50:19;;;;;;;7.15;3.17;;;;;;;9.87;55.19;101781.22;4879652;29;20041;-72
2023/04/20 08:52:44;;;;;;;6.45;3.10;;;;;;;9.95;55.47;101782.97;4880439;29;20039;-71
2023/04/20 08:55:16;;;;;;;6.32;3.03;;;;;;;10.06;55.37;101786.44;4885270;29;20123;-72
2023/04/20 08:57:42;;;;;;;6.45;3.22;;;;;;;10.09;54.29;101781.16;4879410;29;20149;-72
2023/04/20 09:00:09;;;;;;;4.45;2.65;;;;;;;10.14;54.19;101784.66;4886363;29;20032;-71
2023/04/20 09:02:57;;;;;;;7.00;3.00;;;;;;;10.29;55.20;101771.34;4890074;29;20437;-72
2023/04/20 09:05:30;;;;;;;6.22;2.90;;;;;;;10.35;53.83;101781.03;4895056;29;20350;-72
2023/04/20 09:08:00;;;;;;;6.05;3.10;;;;;;;10.43;54.16;101773.03;4890812;29;20065;-72
2023/04/20 09:10:37;;;;;;;6.72;2.90;;;;;;;10.61;53.98;101769.38;4867836;29;20072;-72
2023/04/20 09:13:03;;;;;;;3.97;2.50;;;;;;;10.71;52.36;101764.00;4892633;29;20481;-72
2023/04/20 09:15:30;;;;;;;5.82;2.85;;;;;;;10.76;52.60;101769.28;4890868;29;20037;-72
2023/04/20 09:17:56;;;;;;;3.38;2.40;;;;;;;10.87;52.22;101780.66;4889437;29;20047;-72
2023/04/20 09:20:33;;;;;;;4.88;2.53;;;;;;;10.83;52.17;101764.78;4888833;29;20521;-72
2023/04/20 09:23:18;;;;;;;5.03;2.72;;;;;;;10.79;52.57;101769.25;4886724;29;20049;-72
2023/04/20 09:25:49;;;;;;;8.18;3.60;;;;;;;10.80;52.16;101765.69;4882901;29;20481;-72
2023/04/20 09:28:15;;;;;;;4.97;2.80;;;;;;;10.86;53.07;101760.38;4882985;29;20048;-72
2023/04/20 09:30:46;;;;;;;4.70;2.50;;;;;;;10.96;51.75;101754.09;4891110;29;20095;-72
2023/04/20 09:33:13;;;;;;;4.30;2.60;;;;;;;10.97;51.89;101769.09;4895085;29;20469;-72
2023/04/20 09:35:43;;;;;;;6.03;2.88;;;;;;;10.94;52.02;101766.47;4892417;29;20379;-72
2023/04/20 09:38:10;;;;;;;4.57;3.05;;;;;;;10.85;52.54;101769.19;4891122;29;20048;-72
2023/04/20 09:40:35;;;;;;;6.60;3.25;;;;;;;10.75;52.76;101759.56;4898058;29;20519;-71
2023/04/20 09:43:17;;;;;;;4.93;3.05;;;;;;;10.65;52.65;101763.19;4898486;29;20064;-71
2023/04/20 09:45:43;;;;;;;4.07;2.80;;;;;;;10.61;53.29;101759.69;4898220;29;20092;-71
2023/04/20 09:48:09;;;;;;;4.35;2.80;;;;;;;10.60;53.07;101757.91;4898787;29;20035;-72
2023/04/20 09:50:38;;;;;;;6.68;2.63;;;;;;;10.44;53.32;101761.56;4898629;29;20499;-71
2023/04/20 09:53:04;;;;;;;5.88;2.75;;;;;;;10.31;53.36;101769.59;4893013;29;20056;-71
2023/04/20 09:55:31;;;;;;;5.82;2.78;;;;;;;10.15;54.38;101767.00;4890711;29;20476;-72
2023/04/20 09:57:57;;;;;;;4.78;2.92;;;;;;;10.04;54.55;101751.16;4881626;29;20378;-71
2023/04/20 10:00:23;;;;;;;6.05;3.25;;;;;;;9.98;55.15;101753.84;4897369;29;20123;-71
2023/04/20 10:02:50;;;;;;;4.55;2.67;;;;;;;9.99;55.64;101750.28;4898415;29;20200;-71
2023/04/20 10:05:15;;;;;;;5.38;2.97;;;;;;;10.04;56.22;101753.78;4898380;29;20044;-72
2023/04/20 10:07:41;;;;;;;3.80;2.92;;;;;;;10.00;55.77;101752.06;4881561;29;20048;-71
2023/04/20 10:10:12;;;;;;;6.25;3.30;;;;;;;9.95;55.97;101752.09;4898255;29;20108;-72
2023/04/20 10:12:54;;;;;;;6.47;3.10;;;;;;;9.85;55.93;101751.25;4898195;29;20363;-72
2023/04/20 10:15:21;;;;;;;5.50;2.92;;;;;;;9.84;56.67;101744.22;4898367;29;20041;-72
2023/04/20 10:17:47;;;;;;;7.97;3.28;;;;;;;9.78;56.58;101746.00;4898049;29;20377;-72
2023/04/20 10:20:21;;;;;;;6.30;3.30;;;;;;;9.69;56.99;101742.50;4897407;29;20131;-72
2023/04/20 10:22:47;;;;;;;7.13;3.08;;;;;;;9.69;56.86;101745.16;4881590;29;20099;-72
2023/04/20 10:25:22;;;;;;;5.85;3.10;;;;;;;9.73;56.30;101753.94;4897865;29;20376;-71
2023/04/20 10:28:08;;;;;;;5.75;2.95;;;;;;;9.67;56.26;101752.22;4898028;29;20480;-72
2023/04/20 10:30:35;;;;;;;8.40;3.58;;;;;;;9.54;56.69;101747.84;4887825;29;20567;-71
2023/04/20 10:33:05;;;;;;;7.22;3.65;;;;;;;9.50;57.02;101745.22;4880926;29;20119;-72
2023/04/20 10:35:46;;;;;;;6.63;3.63;;;;;;;9.55;56.53;101751.38;4897456;29;20048;-72
2023/04/20 10:38:11;;;;;;;5.00;3.28;;;;;;;9.58;57.10;101739.00;4896716;29;20476;-71
2023/04/20 10:40:37;;;;;;;7.50;3.40;;;;;;;9.72;57.13;101728.41;4880250;29;20036;-72
2023/04/20 10:43:03;;;;;;;9.68;3.10;;;;;;;9.93;56.32;101739.75;4891733;29;20198;-72
2023/04/20 10:45:37;;;;;;;8.32;3.30;;;;;;;10.12;56.05;101733.50;4877473;29;20036;-72
2023/04/20 10:48:07;;;;;;;4.90;3.08;;;;;;;10.27;54.62;101714.84;4877221;29;20040;-72
2023/04/20 10:50:33;;;;;;;4.97;3.22;;;;;;;10.39;54.41;101718.34;4875933;29;20041;-72
2023/04/20 10:52:59;;;;;;;5.75;3.42;;;;;;;10.44;54.52;101717.44;4889708;29;20036;-71
2023/04/20 10:55:25;;;;;;;5.75;3.55;;;;;;;10.46;54.15;101717.41;4886330;29;20081;-72
2023/04/20 10:57:51;;;;;;;6.07;3.33;;;;;;;10.42;54.46;101715.69;4883552;29;20410;-71
2023/04/20 11:00:25;;;;;;;8.85;3.67;;;;;;;10.41;53.86;101716.56;4867706;29;20068;-72
2023/04/20 11:02:53;;;;;;;6.88;3.65;;;;;;;10.51;54.58;101715.63;4878298;29;20036;-72
2023/04/20 11:05:20;;;;;;;3.85;2.92;;;;;;;11.06;54.39;101711.59;4888282;29;20031;-72
2023/04/20 11:07:54;;;;;;;7.18;3.55;;;;;;;11.59;52.23;101699.50;4884087;29;20330;-72
2023/04/20 11:10:22;;;;;;;7.00;3.08;;;;;;;12.02;51.89;101691.03;4894359;29;20037;-72
2023/04/20 11:12:48;;;;;;;5.88;3.60;;;;;;;12.11;50.30;101690.00;4891565;29;20025;-72
2023/04/20 11:15:15;;;;;;;10.18;3.00;;;;;;;12.24;51.25;101694.25;4877304;29;20555;-72
2023/04/20 11:17:40;;;;;;;11.35;3.40;;;;;;;12.43;49.43;101687.72;4891766;29;20043;-72
2023/04/20 11:20:15;;;;;;;5.20;3.30;;;;;;;12.59;49.31;101682.19;4888295;29;20388;-72
2023/04/20 11:22:41;;;;;;;5.28;3.25;;;;;;;12.53;48.57;101672.50;4892023;29;20084;-72
2023/04/20 11:25:09;;;;;;;4.25;3.20;;;;;;;12.45;48.86;101672.63;4888627;29;20056;-71
2023/04/20 11:27:36;;;;;;;4.55;3.10;;;;;;;12.32;48.46;101670.22;4888791;29;20045;-72
2023/04/20 11:30:04;;;;;;;4.10;2.92;;;;;;;12.11;49.05;101659.00;4892652;29;20025;-72
2023/04/20 11:32:34;;;;;;;4.38;3.17;;;;;;;11.92;49.17;101676.09;4894068;29;20457;-72